createdAt,value
2023-05-24T00:00:02.016Z,5.93
2023-05-24T00:02:32.978Z,3.63
2023-05-24T00:05:01.457Z,12.20
2023-05-24T00:07:30.350Z,4.93
2023-05-24T00:09:57.702Z,7.57
2023-05-24T00:12:25.912Z,4.28
2023-05-24T00:14:53.155Z,5.30
2023-05-24T00:17:20.529Z,3.05
2023-05-24T00:19:47.891Z,6.63
2023-05-24T00:22:15.294Z,3.83
2023-05-24T00:24:42.648Z,5.63
2023-05-24T00:27:12.009Z,3.95
2023-05-24T00:29:39.347Z,7.38
2023-05-24T00:32:07.134Z,6.78
2023-05-24T00:34:34.566Z,12.38
2023-05-24T00:37:01.844Z,4.85
2023-05-24T00:39:29.197Z,3.08
2023-05-24T00:41:56.566Z,8.00
2023-05-24T00:44:23.970Z,6.75
2023-05-24T00:46:51.417Z,6.75
2023-05-24T00:49:20.078Z,4.13
2023-05-24T00:51:51.287Z,9.43
2023-05-24T00:54:19.675Z,3.85
2023-05-24T00:56:48.744Z,3.55
2023-05-24T00:59:16.346Z,4.65
2023-05-24T01:01:47.193Z,3.13
2023-05-24T01:04:14.953Z,4.38
2023-05-24T01:07:07.825Z,6.40
2023-05-24T01:10:00.283Z,5.93
2023-05-24T01:12:45.211Z,4.95
2023-05-24T01:17:54.380Z,3.78
2023-05-24T01:20:23.946Z,4.72
2023-05-24T01:23:32.064Z,2.17
2023-05-24T01:26:31.025Z,4.88
2023-05-24T01:29:01.873Z,7.82
2023-05-24T01:31:29.274Z,4.30
2023-05-24T01:33:57.182Z,4.13
2023-05-24T01:36:24.569Z,4.78
2023-05-24T01:38:52.439Z,2.25
2023-05-24T01:41:23.918Z,9.60
2023-05-24T01:44:04.272Z,3.15
2023-05-24T01:46:38.481Z,3.40
2023-05-24T01:49:11.837Z,5.15
2023-05-24T01:51:44.997Z,4.28
2023-05-24T01:54:15.130Z,2.33
2023-05-24T01:56:44.767Z,3.83
2023-05-24T01:59:13.106Z,2.53
2023-05-24T02:01:40.830Z,4.82
2023-05-24T02:04:08.410Z,2.78
2023-05-24T02:06:36.184Z,4.25
2023-05-24T02:09:03.646Z,4.90
2023-05-24T02:11:30.939Z,3.15
2023-05-24T02:13:58.265Z,3.03
2023-05-24T02:16:26.890Z,5.25
2023-05-24T02:18:54.493Z,5.88
2023-05-24T02:21:23.598Z,2.85
2023-05-24T02:23:51.014Z,7.43
2023-05-24T02:26:21.070Z,3.58
2023-05-24T02:28:48.529Z,4.45
2023-05-24T02:31:16.080Z,3.42
2023-05-24T02:33:43.715Z,5.90
2023-05-24T02:36:11.149Z,2.47
2023-05-24T02:38:38.558Z,5.65
2023-05-24T02:41:05.982Z,4.35
2023-05-24T02:43:33.333Z,3.92
2023-05-24T02:46:00.837Z,5.13
2023-05-24T02:48:28.219Z,3.53
2023-05-24T02:50:55.784Z,5.95
2023-05-24T02:53:23.137Z,3.90
2023-05-24T02:55:51.247Z,3.80
2023-05-24T02:58:18.884Z,5.35
2023-05-24T03:00:49.006Z,2.70
2023-05-24T03:03:17.906Z,3.13
2023-05-24T03:05:46.294Z,3.10
2023-05-24T03:08:14.454Z,2.58
2023-05-24T03:10:42.151Z,3.85
2023-05-24T03:13:09.658Z,3.05
2023-05-24T03:15:38.453Z,4.53
2023-05-24T03:18:06.134Z,5.00
2023-05-24T03:20:34.068Z,3.38
2023-05-24T03:23:01.847Z,3.60
2023-05-24T03:25:29.926Z,7.95
2023-05-24T03:27:57.470Z,7.47
2023-05-24T03:30:24.948Z,5.95
2023-05-24T03:32:55.888Z,5.85
2023-05-24T03:35:23.237Z,2.80
2023-05-24T03:37:50.958Z,6.35
2023-05-24T03:40:18.562Z,1.90
2023-05-24T03:42:53.855Z,4.45
2023-05-24T03:45:38.577Z,5.80
2023-05-24T03:48:07.289Z,5.10
2023-05-24T03:50:35.131Z,4.90
2023-05-24T03:53:02.514Z,2.40
2023-05-24T03:55:29.835Z,5.65
2023-05-24T03:57:57.950Z,5.43
2023-05-24T04:00:25.334Z,4.38
2023-05-24T04:02:53.274Z,8.75
2023-05-24T04:05:27.116Z,3.13
2023-05-24T04:07:54.631Z,6.20
2023-05-24T04:10:22.084Z,6.75
2023-05-24T04:12:49.914Z,4.65
2023-05-24T04:15:17.269Z,8.10
2023-05-24T04:17:46.845Z,8.80
2023-05-24T04:20:14.467Z,5.50
2023-05-24T04:22:41.862Z,6.78
2023-05-24T04:25:10.221Z,6.28
2023-05-24T04:27:37.849Z,6.20
2023-05-24T04:30:05.851Z,5.68
2023-05-24T04:32:33.222Z,8.05
2023-05-24T04:35:02.777Z,6.32
2023-05-24T04:37:33.858Z,6.13
2023-05-24T04:40:01.191Z,6.63
2023-05-24T04:42:32.356Z,8.77
2023-05-24T04:44:59.771Z,8.75
2023-05-24T04:47:27.359Z,5.72
2023-05-24T04:49:54.871Z,12.82
2023-05-24T04:52:22.813Z,8.38
2023-05-24T04:54:51.220Z,8.77
2023-05-24T04:57:18.540Z,8.80
2023-05-24T04:59:46.016Z,4.03
2023-05-24T05:02:13.597Z,8.93
2023-05-24T05:04:41.209Z,11.98
2023-05-24T05:07:08.935Z,7.30
2023-05-24T05:09:36.350Z,15.73
2023-05-24T05:12:03.901Z,13.02
2023-05-24T05:14:31.292Z,11.13
2023-05-24T05:16:59.153Z,8.02
2023-05-24T05:19:26.546Z,7.68
2023-05-24T05:21:53.886Z,11.30
2023-05-24T05:24:22.005Z,11.30
2023-05-24T05:26:49.390Z,11.63
2023-05-24T05:29:16.809Z,19.45
2023-05-24T05:31:44.136Z,8.75
2023-05-24T05:34:11.635Z,8.45
2023-05-24T05:36:41.020Z,15.60
2023-05-24T05:39:11.996Z,11.57
2023-05-24T05:41:40.061Z,11.57
2023-05-24T05:44:07.530Z,9.25
2023-05-24T05:46:34.914Z,9.82
2023-05-24T05:49:02.308Z,24.63
2023-05-24T05:51:29.639Z,22.75
2023-05-24T05:53:56.884Z,18.15
2023-05-24T05:56:24.145Z,12.43
2023-05-24T05:58:51.515Z,11.70
2023-05-24T06:01:18.954Z,15.15
2023-05-24T06:03:46.454Z,12.18
2023-05-24T06:06:14.018Z,12.48
2023-05-24T06:08:41.373Z,15.55
2023-05-24T06:11:08.777Z,17.30
2023-05-24T06:13:36.109Z,14.95
2023-05-24T06:16:03.480Z,16.90
2023-05-24T06:18:32.674Z,21.10
2023-05-24T06:21:00.058Z,16.02
2023-05-24T06:23:27.604Z,14.50
2023-05-24T06:25:54.938Z,15.20
2023-05-24T06:28:22.857Z,14.93
2023-05-24T06:30:50.363Z,15.60
2023-05-24T06:33:17.838Z,13.15
2023-05-24T06:35:45.137Z,10.80
2023-05-24T06:38:12.455Z,21.63
2023-05-24T06:40:40.350Z,10.23
2023-05-24T06:43:07.986Z,17.25
2023-05-24T06:45:35.526Z,13.60
2023-05-24T06:48:03.070Z,11.55
2023-05-24T06:50:30.492Z,21.38
2023-05-24T06:52:57.766Z,20.58
2023-05-24T06:55:25.115Z,17.80
2023-05-24T06:57:52.428Z,16.60
2023-05-24T07:00:20.559Z,17.17
2023-05-24T07:02:47.942Z,20.70
2023-05-24T07:05:15.414Z,15.20
2023-05-24T07:07:43.538Z,14.10
2023-05-24T07:10:11.719Z,17.90
2023-05-24T07:12:39.210Z,14.90
2023-05-24T07:15:07.404Z,12.07
2023-05-24T07:17:34.790Z,18.20
2023-05-24T07:20:02.575Z,16.70
2023-05-24T07:22:31.779Z,24.15
2023-05-24T07:24:59.054Z,19.65
2023-05-24T07:27:26.286Z,17.48
2023-05-24T07:29:54.269Z,9.05
2023-05-24T07:32:21.808Z,10.90
2023-05-24T07:34:50.549Z,17.27
2023-05-24T07:37:17.940Z,17.13
2023-05-24T07:39:45.366Z,13.95
2023-05-24T07:42:12.665Z,14.43
2023-05-24T07:44:40.647Z,12.38
2023-05-24T07:47:08.026Z,19.35
2023-05-24T07:49:35.862Z,14.02
2023-05-24T07:52:04.500Z,13.57
2023-05-24T07:54:31.885Z,16.77
2023-05-24T07:56:59.239Z,13.52
2023-05-24T07:59:27.208Z,13.38
2023-05-24T08:01:54.546Z,17.33
2023-05-24T08:04:21.904Z,15.88
2023-05-24T08:06:49.191Z,13.40
2023-05-24T08:09:16.859Z,21.17
2023-05-24T08:11:44.108Z,13.32
2023-05-24T08:14:11.846Z,12.80
2023-05-24T08:16:39.323Z,10.80
2023-05-24T08:19:06.946Z,13.55
2023-05-24T08:21:34.232Z,10.05
2023-05-24T08:24:02.831Z,17.63
2023-05-24T08:26:30.054Z,9.50
2023-05-24T08:28:57.310Z,10.10
2023-05-24T08:31:24.671Z,12.75
2023-05-24T08:33:52.996Z,11.88
2023-05-24T08:36:20.371Z,15.20
2023-05-24T08:38:47.625Z,14.25
2023-05-24T08:41:14.957Z,16.25
2023-05-24T08:43:47.267Z,11.95
2023-05-24T08:46:18.461Z,12.90
2023-05-24T08:48:47.732Z,20.83
2023-05-24T08:51:16.189Z,19.23
2023-05-24T08:53:49.797Z,15.35
2023-05-24T08:56:18.671Z,16.00
2023-05-24T08:58:47.339Z,14.48
2023-05-24T09:01:16.634Z,13.48
2023-05-24T09:03:48.399Z,19.65
2023-05-24T09:06:19.540Z,11.27
2023-05-24T09:08:47.110Z,8.82
2023-05-24T09:11:16.725Z,9.82
2023-05-24T09:13:46.046Z,20.00
2023-05-24T09:16:15.280Z,14.07
2023-05-24T09:18:45.639Z,11.65
2023-05-24T09:21:13.351Z,20.33
2023-05-24T09:23:41.807Z,11.38
2023-05-24T09:26:10.353Z,13.38
2023-05-24T09:28:38.397Z,9.90
2023-05-24T09:31:07.775Z,16.05
2023-05-24T09:33:35.940Z,13.77
2023-05-24T09:36:06.255Z,8.50
2023-05-24T09:38:36.493Z,14.55
2023-05-24T09:41:06.801Z,10.95
2023-05-24T09:43:35.373Z,9.35
2023-05-24T09:46:04.783Z,13.25
2023-05-24T09:48:32.473Z,12.25
2023-05-24T09:51:07.590Z,10.07
2023-05-24T09:53:36.287Z,12.25
2023-05-24T09:56:10.606Z,4.35
2023-05-24T09:58:37.900Z,5.93
2023-05-24T10:01:11.091Z,8.60
2023-05-24T10:03:38.873Z,17.15
2023-05-24T10:06:11.500Z,14.30
2023-05-24T10:08:39.200Z,14.88
2023-05-24T10:11:06.648Z,7.85
2023-05-24T10:13:35.974Z,9.05
2023-05-24T10:16:03.990Z,11.27
2023-05-24T10:18:31.693Z,9.48
2023-05-24T10:21:01.018Z,13.30
2023-05-24T10:23:32.787Z,16.95
2023-05-24T10:26:08.795Z,11.85
2023-05-24T10:28:59.207Z,10.10
2023-05-24T10:31:34.659Z,10.93
2023-05-24T10:34:07.676Z,12.30
2023-05-24T10:36:37.182Z,8.13
2023-05-24T10:39:05.169Z,15.13
2023-05-24T10:41:41.040Z,12.05
2023-05-24T10:44:20.286Z,13.60
2023-05-24T10:47:28.607Z,15.93
2023-05-24T10:50:04.823Z,11.57
2023-05-24T10:52:36.656Z,13.90
2023-05-24T10:55:09.866Z,12.45
2023-05-24T10:57:38.871Z,8.73
2023-05-24T11:00:43.102Z,9.80
2023-05-24T11:03:11.273Z,6.75
2023-05-24T11:05:50.797Z,12.23
2023-05-24T11:08:26.194Z,9.57
2023-05-24T11:14:01.427Z,20.77
2023-05-24T11:16:40.366Z,10.25
2023-05-24T11:19:25.610Z,9.88
2023-05-24T11:24:27.470Z,8.40
2023-05-24T11:26:57.147Z,8.73
2023-05-24T11:29:25.262Z,9.18
2023-05-24T11:31:55.361Z,6.82
2023-05-24T11:34:24.007Z,9.20
2023-05-24T11:36:55.689Z,10.45
2023-05-24T11:39:23.878Z,5.57
2023-05-24T11:41:53.647Z,10.48
2023-05-24T11:44:21.371Z,10.15
2023-05-24T11:46:48.804Z,8.52
2023-05-24T11:49:17.377Z,10.57
2023-05-24T11:51:44.886Z,7.00
2023-05-24T11:54:12.183Z,4.35
2023-05-24T11:56:40.149Z,9.30
2023-05-24T11:59:20.225Z,7.10
2023-05-24T12:01:47.662Z,8.50
2023-05-24T12:04:14.949Z,8.90
2023-05-24T12:06:43.721Z,5.63
2023-05-24T12:09:13.727Z,6.35
2023-05-24T12:11:50.085Z,6.22
2023-05-24T12:14:19.808Z,5.57
2023-05-24T12:16:47.634Z,11.15
2023-05-24T12:21:58.587Z,7.90
2023-05-24T12:24:27.087Z,8.88
2023-05-24T12:27:03.017Z,9.98
2023-05-24T12:29:39.980Z,8.55
2023-05-24T12:32:12.793Z,8.48
2023-05-24T12:34:42.608Z,9.47
2023-05-24T12:37:11.183Z,9.23
2023-05-24T12:39:38.938Z,13.07
2023-05-24T12:42:06.467Z,11.00
2023-05-24T12:44:38.065Z,6.68
2023-05-24T12:47:07.683Z,7.35
2023-05-24T12:49:35.674Z,5.75
2023-05-24T12:52:03.013Z,9.55
2023-05-24T12:54:30.374Z,5.70
2023-05-24T12:57:00.398Z,8.05
2023-05-24T12:59:28.893Z,10.80
2023-05-24T13:01:56.710Z,8.60
2023-05-24T13:04:27.453Z,9.90
2023-05-24T13:06:55.736Z,10.48
2023-05-24T13:09:23.967Z,6.20
2023-05-24T13:11:52.753Z,9.63
2023-05-24T13:14:20.436Z,10.25
2023-05-24T13:16:48.526Z,12.48
2023-05-24T13:19:16.686Z,12.95
2023-05-24T13:21:44.201Z,12.70
2023-05-24T13:24:16.545Z,10.00
2023-05-24T13:26:44.621Z,6.97
2023-05-24T13:31:42.881Z,14.02
2023-05-24T13:34:13.107Z,9.20
2023-05-24T13:36:40.717Z,5.00
2023-05-24T13:41:41.434Z,7.68
2023-05-24T13:44:10.183Z,6.40
2023-05-24T13:46:38.568Z,10.65
2023-05-24T13:49:07.260Z,5.07
2023-05-24T13:51:34.690Z,7.05
2023-05-24T13:54:02.194Z,7.40
2023-05-24T13:56:33.206Z,14.07
2023-05-24T13:59:02.727Z,5.88
2023-05-24T14:01:30.707Z,9.52
2023-05-24T14:03:58.010Z,6.90
2023-05-24T14:06:25.567Z,7.97
2023-05-24T14:08:52.857Z,6.85
2023-05-24T14:11:20.198Z,9.07
2023-05-24T14:16:18.425Z,7.30
2023-05-24T14:18:46.106Z,9.13
2023-05-24T14:21:13.637Z,6.75
2023-05-24T14:23:40.863Z,6.00
2023-05-24T14:26:08.201Z,6.75
2023-05-24T14:28:35.590Z,10.05
2023-05-24T14:31:03.025Z,4.93
2023-05-24T14:33:30.475Z,8.05
2023-05-24T14:35:57.886Z,6.60
2023-05-24T14:38:25.583Z,13.43
2023-05-24T14:40:52.901Z,6.43
2023-05-24T14:43:21.246Z,8.85
2023-05-24T14:45:48.849Z,13.98
2023-05-24T14:48:17.071Z,9.00
2023-05-24T14:50:44.329Z,6.43
2023-05-24T14:53:14.253Z,9.85
2023-05-24T14:55:43.510Z,8.43
2023-05-24T14:58:12.237Z,10.80
2023-05-24T15:00:41.016Z,11.02
2023-05-24T15:03:09.095Z,7.22
2023-05-24T15:05:36.934Z,11.38
2023-05-24T15:08:05.909Z,8.77
2023-05-24T15:10:33.611Z,7.78
2023-05-24T15:13:01.721Z,8.95
2023-05-24T15:15:29.246Z,6.70
2023-05-24T15:17:57.829Z,11.15
2023-05-24T15:20:25.991Z,12.93
2023-05-24T15:22:53.879Z,9.50
2023-05-24T15:25:21.263Z,7.90
2023-05-24T15:27:48.873Z,10.60
2023-05-24T15:30:17.630Z,7.43
2023-05-24T15:32:46.714Z,11.88
2023-05-24T15:35:14.371Z,6.43
2023-05-24T15:37:43.152Z,7.03
2023-05-24T15:40:11.669Z,5.28
2023-05-24T15:42:39.298Z,10.20
2023-05-24T15:45:07.316Z,12.35
2023-05-24T15:47:40.013Z,9.00
2023-05-24T15:50:08.623Z,9.95
2023-05-24T15:52:36.284Z,7.40
2023-05-24T15:55:04.089Z,8.35
2023-05-24T15:57:31.754Z,10.27
2023-05-24T15:59:59.062Z,10.48
2023-05-24T16:02:26.498Z,8.93
2023-05-24T16:04:54.436Z,6.70
2023-05-24T16:07:21.749Z,5.90
2023-05-24T16:09:51.089Z,6.93
2023-05-24T16:12:18.760Z,5.72
2023-05-24T16:14:46.309Z,9.73
2023-05-24T16:17:15.046Z,6.53
2023-05-24T16:19:42.453Z,5.93
2023-05-24T16:22:09.727Z,7.72
2023-05-24T16:24:37.020Z,7.15
2023-05-24T16:27:04.397Z,6.90
2023-05-24T16:29:32.477Z,8.18
2023-05-24T16:31:59.771Z,6.30
2023-05-24T16:34:27.026Z,8.52
2023-05-24T16:36:54.396Z,6.95
2023-05-24T16:39:22.213Z,4.80
2023-05-24T16:41:49.634Z,8.52
2023-05-24T16:44:18.069Z,5.55
2023-05-24T16:46:46.331Z,5.70
2023-05-24T16:49:13.863Z,9.88
2023-05-24T16:51:41.240Z,7.50
2023-05-24T16:54:09.246Z,7.03
2023-05-24T16:56:38.188Z,7.85
2023-05-24T16:59:05.885Z,3.92
2023-05-24T17:01:33.355Z,4.70
2023-05-24T17:04:00.856Z,5.85
2023-05-24T17:06:28.452Z,5.05
2023-05-24T17:08:55.679Z,3.85
2023-05-24T17:11:23.322Z,4.10
2023-05-24T17:13:51.604Z,8.15
2023-05-24T17:16:19.415Z,8.52
2023-05-24T17:18:46.812Z,5.45
2023-05-24T17:21:14.347Z,4.25
2023-05-24T17:23:41.968Z,7.75
2023-05-24T17:26:09.822Z,6.25
2023-05-24T17:28:37.417Z,6.25
2023-05-24T17:31:04.756Z,7.90
2023-05-24T17:33:32.409Z,5.65
2023-05-24T17:36:04.454Z,7.97
2023-05-24T17:38:37.567Z,4.97
2023-05-24T17:41:07.899Z,8.98
2023-05-24T17:43:38.850Z,2.83
2023-05-24T17:46:07.123Z,10.05
2023-05-24T17:48:36.226Z,5.88
2023-05-24T17:51:08.242Z,3.97
2023-05-24T17:53:37.118Z,6.15
2023-05-24T17:56:05.906Z,7.00
2023-05-24T17:58:36.548Z,7.18
2023-05-24T18:01:10.845Z,3.17
2023-05-24T18:03:39.301Z,5.38
2023-05-24T18:06:07.809Z,5.68
2023-05-24T18:08:38.151Z,3.80
2023-05-24T18:11:09.763Z,5.70
2023-05-24T18:13:41.990Z,6.65
2023-05-24T18:16:13.364Z,2.83
2023-05-24T18:18:41.492Z,5.25
2023-05-24T18:21:09.881Z,5.20
2023-05-24T18:23:38.237Z,4.10
2023-05-24T18:26:10.082Z,8.25
2023-05-24T18:28:38.604Z,7.25
2023-05-24T18:31:15.463Z,4.57
2023-05-24T18:33:42.773Z,5.68
2023-05-24T18:36:10.137Z,5.10
2023-05-24T18:38:40.007Z,7.00
2023-05-24T18:41:10.187Z,6.85
2023-05-24T18:43:37.827Z,5.25
2023-05-24T18:46:05.248Z,4.97
2023-05-24T18:48:32.522Z,3.58
2023-05-24T18:51:00.011Z,3.13
2023-05-24T18:53:27.387Z,4.05
2023-05-24T18:55:54.663Z,4.47
2023-05-24T18:58:22.198Z,6.07
2023-05-24T19:00:50.693Z,5.63
2023-05-24T19:03:18.224Z,6.57
2023-05-24T19:05:45.998Z,11.93
2023-05-24T19:08:13.700Z,6.07
2023-05-24T19:10:41.487Z,9.80
2023-05-24T19:13:08.994Z,5.57
2023-05-24T19:15:36.808Z,5.63
2023-05-24T19:18:04.515Z,9.15
2023-05-24T19:20:31.939Z,7.30
2023-05-24T19:22:59.499Z,9.23
2023-05-24T19:25:27.208Z,7.07
2023-05-24T19:27:59.816Z,7.97
2023-05-24T19:30:27.707Z,7.25
2023-05-24T19:32:55.018Z,8.85
2023-05-24T19:35:22.635Z,8.98
2023-05-24T19:37:50.145Z,6.63
2023-05-24T19:40:17.428Z,8.50
2023-05-24T19:42:44.664Z,6.20
2023-05-24T19:45:13.542Z,5.40
2023-05-24T19:47:41.397Z,11.02
2023-05-24T19:50:09.360Z,12.57
2023-05-24T19:52:36.674Z,10.88
2023-05-24T19:55:04.193Z,8.45
2023-05-24T19:57:31.768Z,10.77
2023-05-24T19:59:59.096Z,8.25
2023-05-24T20:02:26.853Z,7.35
2023-05-24T20:04:54.179Z,6.97
2023-05-24T20:07:21.493Z,10.23
2023-05-24T20:09:49.955Z,13.75
2023-05-24T20:12:17.387Z,10.55
2023-05-24T20:14:44.781Z,10.70
2023-05-24T20:17:12.130Z,12.55
2023-05-24T20:19:39.383Z,11.80
2023-05-24T20:22:06.646Z,7.95
2023-05-24T20:24:33.979Z,7.55
2023-05-24T20:27:02.418Z,11.23
2023-05-24T20:29:30.179Z,11.85
2023-05-24T20:31:57.747Z,11.85
2023-05-24T20:34:25.069Z,9.88
2023-05-24T20:36:57.096Z,12.65
2023-05-24T20:39:24.725Z,8.27
2023-05-24T20:41:51.968Z,9.63
2023-05-24T20:44:19.281Z,8.75
2023-05-24T20:46:46.597Z,16.13
2023-05-24T20:49:14.508Z,9.30
2023-05-24T20:51:41.819Z,8.75
2023-05-24T20:54:09.105Z,8.60
2023-05-24T20:56:36.617Z,9.00
2023-05-24T20:59:04.004Z,6.88
2023-05-24T21:01:31.417Z,6.95
2023-05-24T21:03:58.838Z,9.48
2023-05-24T21:06:26.516Z,5.93
2023-05-24T21:08:53.899Z,11.88
2023-05-24T21:11:21.733Z,10.48
2023-05-24T21:13:49.067Z,9.05
2023-05-24T21:16:16.461Z,11.20
2023-05-24T21:18:43.716Z,5.72
2023-05-24T21:21:11.263Z,7.88
2023-05-24T21:23:38.699Z,9.68
2023-05-24T21:26:06.113Z,5.85
2023-05-24T21:28:33.468Z,7.68
2023-05-24T21:31:00.917Z,11.02
2023-05-24T21:33:28.229Z,11.88
2023-05-24T21:35:56.188Z,7.78
2023-05-24T21:38:23.457Z,7.65
2023-05-24T21:40:51.098Z,10.00
2023-05-24T21:43:18.503Z,6.65
2023-05-24T21:45:46.012Z,6.30
2023-05-24T21:48:13.404Z,12.07
2023-05-24T21:50:40.910Z,8.57
2023-05-24T21:53:08.308Z,8.75
2023-05-24T21:55:35.702Z,13.20
2023-05-24T21:58:03.059Z,10.50
2023-05-24T22:00:30.722Z,10.68
2023-05-24T22:02:58.299Z,11.93
2023-05-24T22:05:42.723Z,10.02
2023-05-24T22:08:11.132Z,7.93
2023-05-24T22:10:38.505Z,8.95
2023-05-24T22:13:05.887Z,6.07
2023-05-24T22:15:33.320Z,9.00
2023-05-24T22:18:03.774Z,8.05
2023-05-24T22:20:32.051Z,8.27
2023-05-24T22:23:00.233Z,9.23
2023-05-24T22:25:27.790Z,8.25
2023-05-24T22:27:58.386Z,7.55
2023-05-24T22:30:26.539Z,9.07
2023-05-24T22:32:54.021Z,10.55
2023-05-24T22:35:21.450Z,11.75
2023-05-24T22:37:48.801Z,8.13
2023-05-24T22:40:16.268Z,11.50
2023-05-24T22:42:43.974Z,14.43
2023-05-24T22:45:11.724Z,10.77
2023-05-24T22:47:39.955Z,12.95
2023-05-24T22:50:08.488Z,13.70
2023-05-24T22:52:36.015Z,14.82
2023-05-24T22:55:03.573Z,8.77
2023-05-24T22:57:31.999Z,10.93
2023-05-24T22:59:59.305Z,11.88
2023-05-24T23:02:29.417Z,15.68
2023-05-24T23:04:57.034Z,14.02
2023-05-24T23:07:25.254Z,10.80
2023-05-24T23:09:52.772Z,11.75
2023-05-24T23:12:21.055Z,12.05
2023-05-24T23:14:48.579Z,12.63
2023-05-24T23:17:17.219Z,11.52
2023-05-24T23:19:44.636Z,12.18
2023-05-24T23:22:13.115Z,9.57
2023-05-24T23:24:44.606Z,13.70
2023-05-24T23:27:11.934Z,14.18
2023-05-24T23:29:39.351Z,13.75
2023-05-24T23:32:08.437Z,12.93
2023-05-24T23:34:36.455Z,12.55
2023-05-24T23:37:05.566Z,11.65
2023-05-24T23:39:32.998Z,11.50
2023-05-24T23:42:00.294Z,11.23
2023-05-24T23:44:27.645Z,11.32
2023-05-24T23:46:56.445Z,9.00
2023-05-24T23:49:24.894Z,9.73
2023-05-24T23:51:52.147Z,9.70
2023-05-24T23:54:19.533Z,19.23
2023-05-24T23:56:47.221Z,14.48
2023-05-24T23:59:16.040Z,14.13
